createdAt,value
2024-05-09T00:00:44.731Z,63.77
2024-05-09T00:03:12.965Z,63.61
2024-05-09T00:05:41.985Z,64.29
2024-05-09T00:08:11.215Z,64.58
2024-05-09T00:10:40.633Z,65.17
2024-05-09T00:13:10.662Z,65.56
2024-05-09T00:15:39.340Z,65.95
2024-05-09T00:18:07.995Z,69.10
2024-05-09T00:20:40.002Z,66.45
2024-05-09T00:23:12.175Z,66.83
2024-05-09T00:25:43.417Z,66.67
2024-05-09T00:28:12.819Z,67.00
2024-05-09T00:30:41.079Z,66.68
2024-05-09T00:33:10.402Z,66.41
2024-05-09T00:35:39.566Z,66.17
2024-05-09T00:38:07.802Z,66.55
2024-05-09T00:40:42.178Z,67.22
2024-05-09T00:43:15.067Z,67.27
2024-05-09T00:45:44.362Z,67.75
2024-05-09T00:48:17.730Z,67.74
2024-05-09T00:50:49.178Z,67.89
2024-05-09T00:53:19.644Z,68.04
2024-05-09T00:55:47.969Z,68.16
2024-05-09T00:58:16.851Z,71.54
2024-05-09T01:00:45.236Z,68.51
2024-05-09T01:03:14.310Z,72.00
2024-05-09T01:05:44.628Z,68.84
2024-05-09T01:08:13.353Z,68.87
2024-05-09T01:10:44.112Z,68.78
2024-05-09T01:13:13.924Z,69.31
2024-05-09T01:15:42.237Z,69.33
2024-05-09T01:18:14.194Z,68.83
2024-05-09T01:20:44.766Z,69.21
2024-05-09T01:23:15.778Z,69.38
2024-05-09T01:25:46.340Z,69.55
2024-05-09T01:28:15.420Z,69.65
2024-05-09T01:30:42.826Z,72.58
2024-05-09T01:33:12.127Z,69.38
2024-05-09T01:35:42.326Z,69.95
2024-05-09T01:38:17.595Z,69.31
2024-05-09T01:40:46.234Z,69.38
2024-05-09T01:43:14.322Z,69.70
2024-05-09T01:45:42.567Z,69.57
2024-05-09T01:48:11.340Z,69.45
2024-05-09T01:50:42.347Z,70.02
2024-05-09T01:53:12.614Z,69.67
2024-05-09T01:55:41.283Z,69.52
2024-05-09T01:58:09.919Z,72.67
2024-05-09T02:00:41.373Z,69.67
2024-05-09T02:03:14.713Z,69.80
2024-05-09T02:05:50.421Z,69.33
2024-05-09T02:08:20.130Z,69.17
2024-05-09T02:10:49.492Z,69.93
2024-05-09T02:13:17.661Z,69.71
2024-05-09T02:15:45.369Z,69.92
2024-05-09T02:18:14.128Z,69.75
2024-05-09T02:20:43.450Z,69.23
2024-05-09T02:23:11.952Z,68.88
2024-05-09T02:25:40.433Z,68.41
2024-05-09T02:28:08.109Z,68.24
2024-05-09T02:30:40.197Z,68.10
2024-05-09T02:33:12.719Z,67.89
2024-05-09T02:35:43.861Z,67.42
2024-05-09T02:38:13.076Z,67.44
2024-05-09T02:40:41.230Z,67.32
2024-05-09T02:43:13.127Z,66.59
2024-05-09T02:45:41.326Z,66.31
2024-05-09T02:48:13.548Z,65.98
2024-05-09T02:50:42.416Z,65.72
2024-05-09T02:53:14.071Z,65.87
2024-05-09T02:55:43.494Z,65.72
2024-05-09T02:58:11.690Z,65.56
2024-05-09T03:00:42.046Z,65.31
2024-05-09T03:03:13.908Z,64.86
2024-05-09T03:05:44.752Z,65.05
2024-05-09T03:08:15.948Z,65.38
2024-05-09T03:10:44.017Z,65.14
2024-05-09T03:13:15.077Z,65.11
2024-05-09T03:15:45.112Z,64.88
2024-05-09T03:18:13.731Z,64.60
2024-05-09T03:20:49.073Z,64.16
2024-05-09T03:23:17.009Z,63.38
2024-05-09T03:25:44.523Z,63.57
2024-05-09T03:28:12.608Z,64.03
2024-05-09T03:30:43.424Z,62.95
2024-05-09T03:33:13.374Z,62.34
2024-05-09T03:35:44.620Z,62.53
2024-05-09T03:38:12.639Z,62.67
2024-05-09T03:40:48.360Z,62.08
2024-05-09T03:43:16.711Z,61.55
2024-05-09T03:45:44.695Z,61.70
2024-05-09T03:48:12.903Z,61.37
2024-05-09T03:50:40.930Z,61.60
2024-05-09T03:53:13.424Z,61.55
2024-05-09T03:55:41.437Z,61.18
2024-05-09T03:58:09.229Z,61.44
2024-05-09T04:00:39.338Z,61.10
2024-05-09T04:03:12.086Z,60.90
2024-05-09T04:05:42.848Z,60.14
2024-05-09T04:08:15.131Z,60.87
2024-05-09T04:10:43.299Z,60.92
2024-05-09T04:13:11.363Z,59.69
2024-05-09T04:15:39.338Z,59.59
2024-05-09T04:18:07.297Z,59.38
2024-05-09T04:20:39.116Z,59.59
2024-05-09T04:23:13.394Z,59.21
2024-05-09T04:25:44.990Z,58.32
2024-05-09T04:28:13.755Z,58.32
2024-05-09T04:30:42.106Z,57.75
2024-05-09T04:33:13.224Z,58.85
2024-05-09T04:35:43.721Z,58.03
2024-05-09T04:38:15.225Z,57.50
2024-05-09T04:40:43.728Z,58.12
2024-05-09T04:43:16.391Z,57.75
2024-05-09T04:45:44.233Z,57.30
2024-05-09T04:48:19.676Z,57.23
2024-05-09T04:50:48.213Z,56.12
2024-05-09T04:53:17.369Z,56.30
2024-05-09T04:55:45.684Z,56.19
2024-05-09T04:58:13.111Z,54.71
2024-05-09T05:00:41.809Z,55.68
2024-05-09T05:03:14.491Z,55.76
2024-05-09T05:05:45.955Z,55.55
2024-05-09T05:08:16.644Z,55.22
2024-05-09T05:10:46.031Z,54.60
2024-05-09T05:13:22.069Z,54.32
2024-05-09T05:15:58.896Z,54.16
2024-05-09T05:18:28.287Z,53.22
2024-05-09T05:20:56.941Z,53.24
2024-05-09T05:23:24.979Z,53.06
2024-05-09T05:25:55.385Z,52.92
2024-05-09T05:28:26.089Z,52.76
2024-05-09T05:30:53.795Z,52.63
2024-05-09T05:33:23.216Z,51.93
2024-05-09T05:35:51.247Z,51.65
2024-05-09T05:38:21.269Z,51.36
2024-05-09T05:40:50.436Z,51.21
2024-05-09T05:43:19.957Z,50.75
2024-05-09T05:45:47.636Z,50.60
2024-05-09T05:48:17.292Z,50.70
2024-05-09T05:50:46.420Z,50.19
2024-05-09T05:53:14.663Z,49.93
2024-05-09T05:55:43.030Z,49.64
2024-05-09T05:58:13.548Z,48.72
2024-05-09T06:00:42.470Z,48.51
2024-05-09T06:03:13.024Z,48.72
2024-05-09T06:05:44.191Z,47.50
2024-05-09T06:08:12.719Z,47.29
2024-05-09T06:10:41.580Z,47.28
2024-05-09T06:13:13.766Z,46.22
2024-05-09T06:15:42.705Z,46.73
2024-05-09T06:18:12.374Z,46.75
2024-05-09T06:20:43.285Z,46.33
2024-05-09T06:23:12.715Z,46.30
2024-05-09T06:25:42.677Z,45.98
2024-05-09T06:28:10.795Z,46.20
2024-05-09T06:30:42.563Z,45.36
2024-05-09T06:33:14.582Z,45.71
2024-05-09T06:35:44.722Z,46.00
2024-05-09T06:38:13.392Z,45.64
2024-05-09T06:40:43.875Z,45.25
2024-05-09T06:43:13.657Z,45.27
2024-05-09T06:45:41.833Z,43.83
2024-05-09T06:48:11.241Z,43.41
2024-05-09T06:50:40.207Z,42.38
2024-05-09T06:53:08.764Z,43.17
2024-05-09T06:55:37.778Z,42.79
2024-05-09T06:58:11.924Z,42.18
2024-05-09T07:00:41.637Z,42.89
2024-05-09T07:03:16.876Z,41.53
2024-05-09T07:05:47.987Z,42.65
2024-05-09T07:08:17.545Z,42.68
2024-05-09T07:10:45.585Z,41.84
2024-05-09T07:13:15.485Z,42.40
2024-05-09T07:15:43.763Z,41.80
2024-05-09T07:18:17.779Z,40.48
2024-05-09T07:20:47.871Z,40.84
2024-05-09T07:23:16.439Z,41.45
2024-05-09T07:25:44.339Z,41.02
2024-05-09T07:28:15.580Z,40.52
2024-05-09T07:30:44.233Z,40.45
2024-05-09T07:33:23.460Z,39.89
2024-05-09T07:35:52.943Z,42.03
2024-05-09T07:38:21.076Z,40.98
2024-05-09T07:40:49.979Z,41.66
2024-05-09T07:43:17.764Z,42.00
2024-05-09T07:45:52.509Z,41.07
2024-05-09T07:52:39.411Z,41.30
2024-05-09T07:53:49.691Z,40.92
2024-05-09T07:56:22.564Z,41.04
2024-05-09T07:58:53.382Z,41.01
2024-05-09T08:01:21.538Z,40.08
2024-05-09T08:03:50.995Z,40.55
2024-05-09T08:06:18.865Z,40.42
2024-05-09T08:08:47.788Z,40.52
2024-05-09T08:11:15.643Z,41.49
2024-05-09T08:13:43.293Z,41.33
2024-05-09T08:16:11.030Z,39.10
2024-05-09T08:18:39.738Z,39.84
2024-05-09T08:21:07.632Z,39.47
2024-05-09T08:23:36.535Z,35.09
2024-05-09T08:26:04.207Z,39.29
2024-05-09T08:28:32.012Z,38.46
2024-05-09T08:31:00.511Z,35.88
2024-05-09T08:33:30.524Z,37.89
2024-05-09T08:35:58.403Z,37.35
2024-05-09T08:38:26.128Z,38.02
2024-05-09T08:40:54.389Z,37.59
2024-05-09T08:43:24.780Z,38.21
2024-05-09T08:45:52.558Z,37.82
2024-05-09T08:48:23.404Z,35.81
2024-05-09T08:50:54.861Z,35.73
2024-05-09T08:53:23.425Z,36.75
2024-05-09T08:55:52.765Z,33.41
2024-05-09T08:58:20.695Z,37.07
2024-05-09T09:00:49.525Z,37.06
2024-05-09T09:03:25.332Z,36.00
2024-05-09T09:06:12.690Z,35.86
2024-05-09T09:08:40.899Z,36.82
2024-05-09T09:11:08.652Z,37.70
2024-05-09T09:13:36.201Z,36.78
2024-05-09T09:16:05.075Z,37.94
2024-05-09T09:18:33.446Z,37.38
2024-05-09T09:21:03.327Z,37.35
2024-05-09T09:23:31.417Z,38.71
2024-05-09T09:25:59.868Z,37.16
2024-05-09T09:28:27.412Z,38.23
2024-05-09T09:31:01.260Z,40.08
2024-05-09T09:33:32.103Z,38.77
2024-05-09T09:36:02.915Z,39.26
2024-05-09T09:38:32.774Z,38.57
2024-05-09T09:41:09.124Z,38.70
2024-05-09T09:43:38.032Z,38.99
2024-05-09T09:46:09.651Z,38.05
2024-05-09T09:48:40.878Z,36.68
2024-05-09T09:51:09.437Z,36.88
2024-05-09T09:53:38.913Z,36.91
2024-05-09T09:56:08.179Z,37.44
2024-05-09T09:58:38.346Z,36.89
2024-05-09T10:01:06.078Z,37.41
2024-05-09T10:03:34.338Z,37.29
2024-05-09T10:06:03.467Z,38.08
2024-05-09T10:08:31.386Z,37.60
2024-05-09T10:10:59.238Z,36.34
2024-05-09T10:13:35.361Z,37.36
2024-05-09T10:16:10.406Z,36.60
2024-05-09T10:18:41.898Z,37.62
2024-05-09T10:21:20.210Z,39.33
2024-05-09T10:24:03.243Z,36.27
2024-05-09T10:26:35.750Z,38.09
2024-05-09T10:29:13.674Z,36.72
2024-05-09T10:31:46.495Z,35.62
2024-05-09T10:34:37.494Z,34.20
2024-05-09T10:37:05.398Z,35.42
2024-05-09T10:39:39.361Z,37.34
2024-05-09T10:42:10.607Z,36.12
2024-05-09T10:44:39.175Z,35.67
2024-05-09T10:47:06.893Z,35.98
2024-05-09T10:49:34.847Z,34.26
2024-05-09T10:52:04.378Z,34.86
2024-05-09T10:54:39.298Z,33.47
2024-05-09T10:57:07.962Z,34.98
2024-05-09T10:59:37.189Z,34.61
2024-05-09T11:02:05.872Z,34.47
2024-05-09T11:04:35.405Z,35.47
2024-05-09T11:07:07.988Z,35.41
2024-05-09T11:09:36.819Z,36.19
2024-05-09T11:12:05.106Z,35.86
2024-05-09T11:14:33.074Z,35.77
2024-05-09T11:17:06.447Z,34.47
2024-05-09T11:19:42.485Z,33.95
2024-05-09T11:22:10.319Z,33.43
2024-05-09T11:24:38.366Z,32.97
2024-05-09T11:27:06.849Z,34.08
2024-05-09T11:29:45.040Z,33.73
2024-05-09T11:32:14.255Z,34.67
2024-05-09T11:34:43.065Z,34.33
2024-05-09T11:37:11.558Z,35.56
2024-05-09T11:39:39.474Z,35.18
2024-05-09T11:42:07.155Z,35.46
2024-05-09T11:44:34.862Z,33.83
2024-05-09T11:47:03.039Z,33.13
2024-05-09T11:49:30.845Z,34.73
2024-05-09T11:51:59.032Z,35.20
2024-05-09T11:54:26.941Z,35.25
2024-05-09T11:56:55.207Z,35.72
2024-05-09T11:59:22.782Z,35.69
2024-05-09T12:01:50.487Z,35.02
2024-05-09T12:04:18.947Z,35.16
2024-05-09T12:06:46.865Z,34.68
2024-05-09T12:09:14.645Z,34.74
2024-05-09T12:11:42.416Z,34.74
2024-05-09T12:14:09.822Z,33.91
2024-05-09T12:16:41.086Z,34.53
2024-05-09T12:19:09.136Z,34.51
2024-05-09T12:21:36.771Z,34.89
2024-05-09T12:24:04.267Z,35.21
2024-05-09T12:26:32.073Z,36.06
2024-05-09T12:28:59.416Z,35.59
2024-05-09T12:31:27.358Z,37.14
2024-05-09T12:33:55.182Z,37.40
2024-05-09T12:36:22.788Z,37.29
2024-05-09T12:38:50.458Z,37.66
2024-05-09T12:41:17.937Z,36.15
2024-05-09T12:43:45.644Z,36.36
2024-05-09T12:46:13.237Z,34.96
2024-05-09T12:48:41.251Z,36.34
2024-05-09T12:51:14.307Z,36.93
2024-05-09T12:53:42.064Z,36.85
2024-05-09T12:56:12.176Z,37.27
2024-05-09T12:58:39.916Z,37.73
2024-05-09T13:01:07.377Z,36.21
2024-05-09T13:03:35.550Z,37.03
2024-05-09T13:06:03.182Z,37.99
2024-05-09T13:08:30.781Z,37.50
2024-05-09T13:10:59.251Z,38.40
2024-05-09T13:13:29.190Z,38.20
2024-05-09T13:15:57.051Z,38.60
2024-05-09T13:18:24.905Z,38.73
2024-05-09T13:20:52.562Z,39.11
2024-05-09T13:23:20.380Z,40.22
2024-05-09T13:25:47.693Z,39.64
2024-05-09T13:28:15.519Z,41.03
2024-05-09T13:30:43.473Z,40.58
2024-05-09T13:33:12.303Z,43.18
2024-05-09T13:35:47.816Z,42.02
2024-05-09T13:38:20.171Z,42.78
2024-05-09T13:40:50.679Z,43.46
2024-05-09T13:43:19.343Z,44.25
2024-05-09T13:45:47.594Z,45.25
2024-05-09T13:48:15.688Z,44.85
2024-05-09T13:50:43.441Z,44.61
2024-05-09T13:53:11.058Z,47.50
2024-05-09T13:55:39.383Z,47.57
2024-05-09T13:58:08.734Z,50.26
2024-05-09T14:00:45.952Z,49.71
2024-05-09T14:03:20.426Z,51.02
2024-05-09T14:05:51.273Z,49.96
2024-05-09T14:08:20.507Z,46.81
2024-05-09T14:10:49.306Z,45.75
2024-05-09T14:13:17.278Z,45.69
2024-05-09T14:15:47.164Z,46.59
2024-05-09T14:18:15.526Z,46.79
2024-05-09T14:20:43.360Z,45.85
2024-05-09T14:23:11.153Z,48.13
2024-05-09T14:25:42.818Z,46.14
2024-05-09T14:28:13.311Z,45.93
2024-05-09T14:30:42.610Z,46.02
2024-05-09T14:33:10.832Z,45.64
2024-05-09T14:35:38.979Z,46.04
2024-05-09T14:38:08.597Z,45.70
2024-05-09T14:40:42.373Z,46.18
2024-05-09T14:43:13.557Z,46.54
2024-05-09T14:45:42.416Z,46.39
2024-05-09T14:48:11.371Z,46.56
2024-05-09T14:50:40.704Z,46.79
2024-05-09T14:53:10.853Z,46.73
2024-05-09T14:55:40.912Z,47.26
2024-05-09T14:58:11.653Z,47.42
2024-05-09T15:00:46.378Z,47.47
2024-05-09T15:03:19.378Z,47.44
2024-05-09T15:05:48.208Z,47.65
2024-05-09T15:08:18.334Z,48.36
2024-05-09T15:10:47.298Z,47.84
2024-05-09T15:13:16.891Z,47.62
2024-05-09T15:15:48.545Z,47.31
2024-05-09T15:18:17.173Z,47.50
2024-05-09T15:20:45.702Z,47.86
2024-05-09T15:23:13.731Z,47.86
2024-05-09T15:25:41.420Z,48.63
2024-05-09T15:28:09.490Z,48.68
2024-05-09T15:30:37.836Z,48.71
2024-05-09T15:33:07.174Z,49.00
2024-05-09T15:35:36.327Z,49.44
2024-05-09T15:38:04.745Z,49.11
2024-05-09T15:40:39.413Z,49.80
2024-05-09T15:43:11.180Z,50.33
2024-05-09T15:45:41.002Z,50.39
2024-05-09T15:48:10.350Z,49.89
2024-05-09T15:50:41.349Z,50.20
2024-05-09T15:53:12.135Z,50.72
2024-05-09T15:55:40.912Z,50.57
2024-05-09T15:58:09.094Z,50.10
2024-05-09T16:00:40.778Z,50.37
2024-05-09T16:03:12.840Z,50.85
2024-05-09T16:05:46.321Z,50.26
2024-05-09T16:08:16.123Z,50.61
2024-05-09T16:10:47.868Z,53.27
2024-05-09T16:13:17.347Z,55.83
2024-05-09T16:15:48.517Z,55.96
2024-05-09T16:18:16.942Z,56.20
2024-05-09T16:20:46.420Z,59.48
2024-05-09T16:23:15.985Z,57.57
2024-05-09T16:25:46.405Z,57.88
2024-05-09T16:28:14.421Z,57.53
2024-05-09T16:30:42.434Z,57.44
2024-05-09T16:33:12.136Z,57.57
2024-05-09T16:35:40.109Z,57.78
2024-05-09T16:38:08.307Z,57.57
2024-05-09T16:40:40.325Z,58.22
2024-05-09T16:43:10.868Z,58.41
2024-05-09T16:45:45.085Z,57.99
2024-05-09T16:48:13.541Z,61.37
2024-05-09T16:50:41.558Z,57.55
2024-05-09T16:53:09.092Z,58.08
2024-05-09T16:55:37.006Z,58.55
2024-05-09T16:58:07.087Z,58.36
2024-05-09T17:00:40.996Z,58.68
2024-05-09T17:03:15.822Z,58.09
2024-05-09T17:05:46.795Z,58.02
2024-05-09T17:08:16.772Z,58.16
2024-05-09T17:10:51.514Z,58.29
2024-05-09T17:13:21.593Z,57.82
2024-05-09T17:15:52.577Z,58.17
2024-05-09T17:18:21.332Z,58.25
2024-05-09T17:20:50.734Z,58.30
2024-05-09T17:23:18.507Z,58.18
2024-05-09T17:25:46.074Z,58.70
2024-05-09T17:28:14.182Z,58.12
2024-05-09T17:30:42.940Z,58.72
2024-05-09T17:33:12.194Z,58.56
2024-05-09T17:35:41.108Z,58.95
2024-05-09T17:38:08.982Z,61.12
2024-05-09T17:40:38.632Z,58.55
2024-05-09T17:43:09.633Z,58.18
2024-05-09T17:45:40.489Z,58.86
2024-05-09T17:48:10.498Z,58.57
2024-05-09T17:50:39.667Z,58.60
2024-05-09T17:53:11.261Z,59.00
2024-05-09T17:55:40.474Z,58.91
2024-05-09T17:58:13.220Z,58.77
2024-05-09T18:00:42.551Z,59.25
2024-05-09T18:03:12.204Z,59.86
2024-05-09T18:05:41.739Z,61.24
2024-05-09T18:08:10.083Z,61.31
2024-05-09T18:10:40.670Z,61.45
2024-05-09T18:13:10.060Z,61.28
2024-05-09T18:15:39.272Z,61.19
2024-05-09T18:18:08.524Z,60.68
2024-05-09T18:20:42.642Z,60.86
2024-05-09T18:23:16.156Z,60.45
2024-05-09T18:25:48.302Z,59.80
2024-05-09T18:28:17.461Z,60.49
2024-05-09T18:30:45.790Z,60.51
2024-05-09T18:33:13.936Z,60.49
2024-05-09T18:35:44.474Z,60.34
2024-05-09T18:38:12.509Z,60.00
2024-05-09T18:40:42.649Z,60.17
2024-05-09T18:43:11.705Z,60.03
2024-05-09T18:45:39.897Z,59.57
2024-05-09T18:48:10.125Z,59.30
2024-05-09T18:50:40.961Z,59.44
2024-05-09T18:53:11.959Z,59.66
2024-05-09T18:55:44.355Z,59.58
2024-05-09T18:58:12.930Z,59.68
2024-05-09T19:00:50.431Z,60.76
2024-05-09T19:03:20.676Z,61.20
2024-05-09T19:05:49.545Z,61.13
2024-05-09T19:08:19.471Z,61.66
2024-05-09T19:10:47.192Z,62.60
2024-05-09T19:13:15.506Z,65.23
2024-05-09T19:15:44.494Z,62.37
2024-05-09T19:18:14.103Z,62.33
2024-05-09T19:20:42.491Z,62.31
2024-05-09T19:23:12.127Z,63.57
2024-05-09T19:25:40.200Z,63.44
2024-05-09T19:28:07.975Z,63.45
2024-05-09T19:30:40.346Z,63.45
2024-05-09T19:33:11.925Z,68.28
2024-05-09T19:35:40.745Z,65.14
2024-05-09T19:38:08.800Z,66.08
2024-05-09T19:40:37.152Z,66.79
2024-05-09T19:43:06.139Z,67.04
2024-05-09T19:45:36.220Z,66.82
2024-05-09T19:48:06.314Z,66.98
2024-05-09T19:50:41.596Z,67.34
2024-05-09T19:53:15.498Z,66.62
2024-05-09T19:55:43.934Z,67.10
2024-05-09T19:58:12.923Z,67.83
2024-05-09T20:00:43.125Z,67.46
2024-05-09T20:03:15.669Z,66.56
2024-05-09T20:05:47.056Z,66.00
2024-05-09T20:08:15.219Z,66.42
2024-05-09T20:10:43.324Z,66.50
2024-05-09T20:13:11.030Z,66.26
2024-05-09T20:15:41.120Z,66.57
2024-05-09T20:18:09.246Z,66.12
2024-05-09T20:20:40.511Z,69.33
2024-05-09T20:23:11.744Z,65.81
2024-05-09T20:25:39.579Z,66.60
2024-05-09T20:28:07.584Z,66.24
2024-05-09T20:30:36.111Z,66.68
2024-05-09T20:33:07.302Z,66.13
2024-05-09T20:35:36.430Z,66.68
2024-05-09T20:38:04.834Z,70.09
2024-05-09T20:40:37.161Z,66.81
2024-05-09T20:43:08.441Z,67.03
2024-05-09T20:45:36.737Z,66.23
2024-05-09T20:48:04.986Z,66.51
2024-05-09T20:50:38.806Z,66.50
2024-05-09T20:53:13.974Z,66.15
2024-05-09T20:55:45.866Z,66.47
2024-05-09T20:58:14.112Z,67.09
2024-05-09T21:00:44.710Z,66.87
2024-05-09T21:03:16.400Z,67.64
2024-05-09T21:05:46.047Z,67.08
2024-05-09T21:08:14.239Z,67.62
2024-05-09T21:10:41.970Z,71.30
2024-05-09T21:13:17.139Z,68.58
2024-05-09T21:15:45.268Z,67.79
2024-05-09T21:18:12.937Z,67.68
2024-05-09T21:20:40.723Z,68.01
2024-05-09T21:23:09.569Z,68.41
2024-05-09T21:25:37.343Z,68.36
2024-05-09T21:28:17.804Z,68.87
2024-05-09T21:30:45.658Z,68.46
2024-05-09T21:33:14.779Z,68.23
2024-05-09T21:35:44.548Z,68.72
2024-05-09T21:38:16.347Z,67.98
2024-05-09T21:40:54.207Z,68.15
2024-05-09T21:43:22.075Z,68.01
2024-05-09T21:45:49.959Z,68.41
2024-05-09T21:48:17.677Z,68.49
2024-05-09T21:50:45.464Z,68.02
2024-05-09T21:53:13.892Z,67.89
2024-05-09T21:55:43.278Z,68.08
2024-05-09T21:58:12.678Z,67.38
2024-05-09T22:00:45.770Z,67.25
2024-05-09T22:03:14.405Z,67.71
2024-05-09T22:05:44.880Z,70.35
2024-05-09T22:08:13.291Z,68.18
2024-05-09T22:10:41.560Z,68.21
2024-05-09T22:13:09.366Z,68.75
2024-05-09T22:15:39.465Z,68.43
2024-05-09T22:18:09.857Z,68.59
2024-05-09T22:20:45.558Z,68.11
2024-05-09T22:23:15.370Z,67.80
2024-05-09T22:25:43.188Z,67.60
2024-05-09T22:28:11.643Z,67.74
2024-05-09T22:30:40.477Z,67.11
2024-05-09T22:33:10.186Z,67.51
2024-05-09T22:35:41.937Z,67.74
2024-05-09T22:38:10.614Z,67.03
2024-05-09T22:40:46.396Z,67.26
2024-05-09T22:43:19.539Z,67.92
2024-05-09T22:45:47.885Z,67.47
2024-05-09T22:48:15.725Z,67.57
2024-05-09T22:50:44.663Z,67.80
2024-05-09T22:53:12.537Z,67.89
2024-05-09T22:55:40.119Z,67.32
2024-05-09T22:58:08.248Z,67.58
2024-05-09T23:00:36.286Z,67.12
2024-05-09T23:03:04.251Z,66.71
2024-05-09T23:05:34.816Z,67.23
2024-05-09T23:08:02.950Z,67.15
2024-05-09T23:10:35.917Z,68.72
2024-05-09T23:13:07.981Z,66.67
2024-05-09T23:15:38.905Z,67.29
2024-05-09T23:18:08.144Z,67.15
2024-05-09T23:20:38.987Z,66.73
2024-05-09T23:23:10.859Z,67.09
2024-05-09T23:25:41.923Z,66.78
2024-05-09T23:28:11.011Z,67.32
2024-05-09T23:30:40.644Z,66.95
2024-05-09T23:33:14.120Z,66.95
2024-05-09T23:35:44.922Z,66.50
2024-05-09T23:38:13.374Z,66.78
2024-05-09T23:40:42.520Z,66.97
2024-05-09T23:43:12.214Z,67.21
2024-05-09T23:45:40.863Z,66.81
2024-05-09T23:48:09.711Z,67.39
2024-05-09T23:50:39.415Z,67.64
2024-05-09T23:53:09.426Z,67.13
2024-05-09T23:55:38.378Z,67.18
2024-05-09T23:58:07.693Z,67.09
